map of CIO home
CIO - Airport
Location
City:  Concepción, Concepción, Paraguay
Name:Teniente Coronel Carmelo Peralta Airport
ICAO:SGCO
IATA:CIO

Details
Type:Airport (Aerodrome, Airfield)
Use:Public/Civil, Military
Latitude:23°26'30"S (-23.441749)
Longitude:57°25'38"W (-57.427121)
Datum:WGS 1984
Elevation:253 ft (77 m)
Variation:15.04°W (WMM2015v2 magnetic declination)
-0.18° annual change
Runways:1
Longest:6070 × 148 ft (1850 × 45 m), paved

Time
Time Zone:UTC-4 (DST-3)
Local Time:

Weather
METAR:SGCO 041200Z 18008KT 9999 BKN010 25/22 Q1015

Related Locations
Nearby:
Farthest:HUN: 12367 mi / 19903 km
Hualien, TW

Find:

   beyond  
but within

Other Information
Maps:
NOTAMs:
Links:
Sources:

  
  • flag of Paraguay
  • flag of Concepción
  

Sectional Chart

Flight Planning
at skyvector.com

Satellite Image

Google Maps Satellite view

 

Copyright © 2004-2019 Karl L. Swartz. All rights reserved.
The Great Circle Mapper name and logo are trademarks of the Great Circle Mapper.
All other trademarks mentioned herein belong to their respective owners.
Please see credits for attibutions and further copyright information.

  Follow gcmap on Facebook Follow gcmap on Twitter GCmap on LinkedIn

hCard Microformat

Geo Microformat